sensor_id;sensor_type;location;lat;lon;timestamp;P1;durP1;ratioP1;P2;durP2;ratioP2
11524;SDS011;5819;49.648;8.330;2023-04-24T00:02:17;4.35;;;1.45;;
11524;SDS011;5819;49.648;8.330;2023-04-24T00:04:45;1.83;;;0.85;;
11524;SDS011;5819;49.648;8.330;2023-04-24T00:07:13;3.35;;;1.42;;
11524;SDS011;5819;49.648;8.330;2023-04-24T00:09:43;0.90;;;0.80;;
11524;SDS011;5819;49.648;8.330;2023-04-24T00:12:11;3.30;;;1.50;;
11524;SDS011;5819;49.648;8.330;2023-04-24T00:14:39;3.45;;;1.20;;
11524;SDS011;5819;49.648;8.330;2023-04-24T00:17:07;1.75;;;1.02;;
11524;SDS011;5819;49.648;8.330;2023-04-24T00:19:36;2.08;;;1.10;;
11524;SDS011;5819;49.648;8.330;2023-04-24T00:22:04;1.63;;;1.13;;
11524;SDS011;5819;49.648;8.330;2023-04-24T00:24:32;1.90;;;1.30;;
11524;SDS011;5819;49.648;8.330;2023-04-24T00:27:01;5.45;;;1.45;;
11524;SDS011;5819;49.648;8.330;2023-04-24T00:29:29;2.70;;;1.30;;
11524;SDS011;5819;49.648;8.330;2023-04-24T00:31:56;3.25;;;1.00;;
11524;SDS011;5819;49.648;8.330;2023-04-24T00:34:25;1.58;;;1.08;;
11524;SDS011;5819;49.648;8.330;2023-04-24T00:36:54;2.63;;;1.45;;
11524;SDS011;5819;49.648;8.330;2023-04-24T00:39:22;2.60;;;1.10;;
11524;SDS011;5819;49.648;8.330;2023-04-24T00:41:50;1.65;;;1.05;;
11524;SDS011;5819;49.648;8.330;2023-04-24T00:44:18;4.65;;;1.20;;
11524;SDS011;5819;49.648;8.330;2023-04-24T00:46:46;2.05;;;1.10;;
11524;SDS011;5819;49.648;8.330;2023-04-24T00:49:18;1.85;;;1.10;;
11524;SDS011;5819;49.648;8.330;2023-04-24T00:51:46;4.20;;;1.27;;
11524;SDS011;5819;49.648;8.330;2023-04-24T00:54:17;2.40;;;1.40;;
11524;SDS011;5819;49.648;8.330;2023-04-24T00:56:45;4.00;;;1.25;;
11524;SDS011;5819;49.648;8.330;2023-04-24T00:59:14;1.38;;;1.20;;
11524;SDS011;5819;49.648;8.330;2023-04-24T01:01:44;2.20;;;1.20;;
11524;SDS011;5819;49.648;8.330;2023-04-24T01:04:12;1.10;;;1.00;;
11524;SDS011;5819;49.648;8.330;2023-04-24T01:09:56;1.90;;;1.20;;
11524;SDS011;5819;49.648;8.330;2023-04-24T01:12:25;2.35;;;1.02;;
11524;SDS011;5819;49.648;8.330;2023-04-24T01:14:53;2.40;;;1.30;;
11524;SDS011;5819;49.648;8.330;2023-04-24T01:17:21;2.20;;;1.38;;
11524;SDS011;5819;49.648;8.330;2023-04-24T01:19:49;4.25;;;1.52;;
11524;SDS011;5819;49.648;8.330;2023-04-24T01:22:21;2.97;;;1.15;;
11524;SDS011;5819;49.648;8.330;2023-04-24T01:24:49;2.15;;;0.98;;
11524;SDS011;5819;49.648;8.330;2023-04-24T01:27:16;3.70;;;1.50;;
11524;SDS011;5819;49.648;8.330;2023-04-24T01:29:45;3.92;;;1.30;;
11524;SDS011;5819;49.648;8.330;2023-04-24T01:32:13;3.15;;;1.55;;
11524;SDS011;5819;49.648;8.330;2023-04-24T01:34:41;2.72;;;1.08;;
11524;SDS011;5819;49.648;8.330;2023-04-24T01:37:10;2.08;;;1.25;;
11524;SDS011;5819;49.648;8.330;2023-04-24T01:39:40;3.65;;;1.40;;
11524;SDS011;5819;49.648;8.330;2023-04-24T01:42:12;2.28;;;1.05;;
11524;SDS011;5819;49.648;8.330;2023-04-24T01:44:41;1.73;;;1.40;;
11524;SDS011;5819;49.648;8.330;2023-04-24T01:47:10;1.63;;;1.17;;
11524;SDS011;5819;49.648;8.330;2023-04-24T01:49:39;1.50;;;1.20;;
11524;SDS011;5819;49.648;8.330;2023-04-24T01:52:08;2.78;;;1.42;;
11524;SDS011;5819;49.648;8.330;2023-04-24T01:54:36;5.28;;;1.40;;
11524;SDS011;5819;49.648;8.330;2023-04-24T01:57:06;3.55;;;1.48;;
11524;SDS011;5819;49.648;8.330;2023-04-24T01:59:34;2.28;;;1.20;;
11524;SDS011;5819;49.648;8.330;2023-04-24T02:02:03;3.15;;;1.05;;
11524;SDS011;5819;49.648;8.330;2023-04-24T02:04:34;2.40;;;1.30;;
11524;SDS011;5819;49.648;8.330;2023-04-24T02:07:02;2.90;;;1.38;;
11524;SDS011;5819;49.648;8.330;2023-04-24T02:09:31;1.30;;;0.90;;
11524;SDS011;5819;49.648;8.330;2023-04-24T02:11:59;2.38;;;1.42;;
11524;SDS011;5819;49.648;8.330;2023-04-24T02:14:29;1.85;;;1.30;;
11524;SDS011;5819;49.648;8.330;2023-04-24T02:16:56;3.67;;;1.50;;
11524;SDS011;5819;49.648;8.330;2023-04-24T02:19:24;4.07;;;1.73;;
11524;SDS011;5819;49.648;8.330;2023-04-24T02:21:52;2.47;;;1.50;;
11524;SDS011;5819;49.648;8.330;2023-04-24T02:24:19;3.45;;;1.60;;
11524;SDS011;5819;49.648;8.330;2023-04-24T02:26:47;2.65;;;1.52;;
11524;SDS011;5819;49.648;8.330;2023-04-24T02:29:15;2.28;;;1.40;;
11524;SDS011;5819;49.648;8.330;2023-04-24T02:31:44;5.63;;;2.03;;
11524;SDS011;5819;49.648;8.330;2023-04-24T02:34:13;2.85;;;1.55;;
11524;SDS011;5819;49.648;8.330;2023-04-24T02:36:42;2.70;;;1.20;;
11524;SDS011;5819;49.648;8.330;2023-04-24T02:39:10;4.57;;;1.55;;
11524;SDS011;5819;49.648;8.330;2023-04-24T02:41:39;3.63;;;1.40;;
11524;SDS011;5819;49.648;8.330;2023-04-24T02:44:07;1.98;;;1.17;;
11524;SDS011;5819;49.648;8.330;2023-04-24T02:46:35;3.72;;;1.33;;
11524;SDS011;5819;49.648;8.330;2023-04-24T02:49:05;4.30;;;1.35;;
11524;SDS011;5819;49.648;8.330;2023-04-24T02:51:33;2.20;;;1.33;;
11524;SDS011;5819;49.648;8.330;2023-04-24T02:54:00;3.03;;;1.23;;
11524;SDS011;5819;49.648;8.330;2023-04-24T02:56:28;0.88;;;0.70;;
11524;SDS011;5819;49.648;8.330;2023-04-24T02:58:58;1.90;;;1.23;;
11524;SDS011;5819;49.648;8.330;2023-04-24T03:01:26;1.77;;;0.85;;
11524;SDS011;5819;49.648;8.330;2023-04-24T03:03:54;2.20;;;1.00;;
11524;SDS011;5819;49.648;8.330;2023-04-24T03:06:24;2.55;;;1.10;;
11524;SDS011;5819;49.648;8.330;2023-04-24T03:08:53;2.85;;;1.50;;
11524;SDS011;5819;49.648;8.330;2023-04-24T03:11:21;1.45;;;1.02;;
11524;SDS011;5819;49.648;8.330;2023-04-24T03:13:48;1.35;;;1.08;;
11524;SDS011;5819;49.648;8.330;2023-04-24T03:16:18;2.53;;;1.42;;
11524;SDS011;5819;49.648;8.330;2023-04-24T03:18:46;2.67;;;1.35;;
11524;SDS011;5819;49.648;8.330;2023-04-24T03:21:14;2.15;;;1.35;;
11524;SDS011;5819;49.648;8.330;2023-04-24T03:23:44;1.70;;;1.40;;
11524;SDS011;5819;49.648;8.330;2023-04-24T03:26:12;2.22;;;1.52;;
11524;SDS011;5819;49.648;8.330;2023-04-24T03:28:51;3.55;;;1.70;;
11524;SDS011;5819;49.648;8.330;2023-04-24T03:31:19;2.28;;;2.05;;
11524;SDS011;5819;49.648;8.330;2023-04-24T03:33:48;2.28;;;1.88;;
11524;SDS011;5819;49.648;8.330;2023-04-24T03:36:16;3.33;;;2.20;;
11524;SDS011;5819;49.648;8.330;2023-04-24T03:38:46;2.20;;;2.00;;
11524;SDS011;5819;49.648;8.330;2023-04-24T03:41:24;3.13;;;2.20;;
11524;SDS011;5819;49.648;8.330;2023-04-24T03:44:01;5.57;;;2.28;;
11524;SDS011;5819;49.648;8.330;2023-04-24T03:46:30;3.67;;;2.10;;
11524;SDS011;5819;49.648;8.330;2023-04-24T03:49:00;3.45;;;2.28;;
11524;SDS011;5819;49.648;8.330;2023-04-24T03:51:32;3.17;;;2.30;;
11524;SDS011;5819;49.648;8.330;2023-04-24T03:54:17;2.58;;;2.38;;
11524;SDS011;5819;49.648;8.330;2023-04-24T03:56:45;3.00;;;2.50;;
11524;SDS011;5819;49.648;8.330;2023-04-24T03:59:13;3.83;;;2.90;;
11524;SDS011;5819;49.648;8.330;2023-04-24T04:01:45;3.65;;;2.47;;
11524;SDS011;5819;49.648;8.330;2023-04-24T04:04:15;3.30;;;2.90;;
11524;SDS011;5819;49.648;8.330;2023-04-24T04:06:44;3.30;;;3.00;;
11524;SDS011;5819;49.648;8.330;2023-04-24T04:09:13;3.30;;;3.00;;
11524;SDS011;5819;49.648;8.330;2023-04-24T04:11:42;3.38;;;3.08;;
11524;SDS011;5819;49.648;8.330;2023-04-24T04:14:11;5.47;;;4.22;;
11524;SDS011;5819;49.648;8.330;2023-04-24T04:16:43;3.47;;;3.10;;
11524;SDS011;5819;49.648;8.330;2023-04-24T04:19:13;3.88;;;3.55;;
11524;SDS011;5819;49.648;8.330;2023-04-24T04:21:41;5.32;;;2.88;;
11524;SDS011;5819;49.648;8.330;2023-04-24T04:24:22;4.47;;;3.03;;
11524;SDS011;5819;49.648;8.330;2023-04-24T04:26:52;3.95;;;3.00;;
11524;SDS011;5819;49.648;8.330;2023-04-24T04:29:34;4.15;;;3.00;;
11524;SDS011;5819;49.648;8.330;2023-04-24T04:32:06;6.20;;;4.10;;
11524;SDS011;5819;49.648;8.330;2023-04-24T04:34:35;4.05;;;3.50;;
11524;SDS011;5819;49.648;8.330;2023-04-24T04:37:05;4.88;;;3.45;;
11524;SDS011;5819;49.648;8.330;2023-04-24T04:39:51;4.07;;;3.28;;
11524;SDS011;5819;49.648;8.330;2023-04-24T04:42:24;6.40;;;3.40;;
11524;SDS011;5819;49.648;8.330;2023-04-24T04:44:53;6.57;;;3.67;;
11524;SDS011;5819;49.648;8.330;2023-04-24T04:47:28;4.47;;;3.72;;
11524;SDS011;5819;49.648;8.330;2023-04-24T04:49:58;4.88;;;4.32;;
11524;SDS011;5819;49.648;8.330;2023-04-24T04:52:27;5.70;;;4.60;;
11524;SDS011;5819;49.648;8.330;2023-04-24T04:55:04;5.20;;;4.45;;
11524;SDS011;5819;49.648;8.330;2023-04-24T04:58:04;5.75;;;3.83;;
11524;SDS011;5819;49.648;8.330;2023-04-24T05:00:32;4.28;;;3.85;;
11524;SDS011;5819;49.648;8.330;2023-04-24T05:03:07;5.68;;;4.10;;
11524;SDS011;5819;49.648;8.330;2023-04-24T05:05:50;5.93;;;4.20;;
11524;SDS011;5819;49.648;8.330;2023-04-24T05:08:19;7.75;;;4.65;;
11524;SDS011;5819;49.648;8.330;2023-04-24T05:10:53;4.35;;;3.90;;
11524;SDS011;5819;49.648;8.330;2023-04-24T05:13:23;6.45;;;4.40;;
11524;SDS011;5819;49.648;8.330;2023-04-24T05:16:08;5.38;;;4.57;;
11524;SDS011;5819;49.648;8.330;2023-04-24T05:18:36;5.03;;;4.55;;
11524;SDS011;5819;49.648;8.330;2023-04-24T05:21:07;5.03;;;4.50;;
11524;SDS011;5819;49.648;8.330;2023-04-24T05:23:36;4.90;;;4.40;;
11524;SDS011;5819;49.648;8.330;2023-04-24T05:26:05;4.40;;;4.00;;
11524;SDS011;5819;49.648;8.330;2023-04-24T05:28:35;7.93;;;4.25;;
11524;SDS011;5819;49.648;8.330;2023-04-24T05:31:07;5.20;;;4.45;;
11524;SDS011;5819;49.648;8.330;2023-04-24T05:33:35;4.40;;;4.10;;
11524;SDS011;5819;49.648;8.330;2023-04-24T05:36:04;5.47;;;4.22;;
11524;SDS011;5819;49.648;8.330;2023-04-24T05:38:33;5.88;;;4.90;;
11524;SDS011;5819;49.648;8.330;2023-04-24T05:41:01;5.05;;;4.65;;
11524;SDS011;5819;49.648;8.330;2023-04-24T05:43:29;5.90;;;4.75;;
11524;SDS011;5819;49.648;8.330;2023-04-24T05:45:59;5.18;;;4.68;;
11524;SDS011;5819;49.648;8.330;2023-04-24T05:48:27;5.32;;;4.40;;
11524;SDS011;5819;49.648;8.330;2023-04-24T05:50:54;6.22;;;4.88;;
11524;SDS011;5819;49.648;8.330;2023-04-24T05:53:23;6.03;;;4.63;;
11524;SDS011;5819;49.648;8.330;2023-04-24T05:55:51;5.88;;;4.82;;
11524;SDS011;5819;49.648;8.330;2023-04-24T05:58:20;5.80;;;4.63;;
11524;SDS011;5819;49.648;8.330;2023-04-24T06:00:49;6.75;;;5.22;;
11524;SDS011;5819;49.648;8.330;2023-04-24T06:03:18;7.05;;;5.13;;
11524;SDS011;5819;49.648;8.330;2023-04-24T06:05:49;7.97;;;5.35;;
11524;SDS011;5819;49.648;8.330;2023-04-24T06:08:19;6.68;;;5.53;;
11524;SDS011;5819;49.648;8.330;2023-04-24T06:10:48;6.15;;;5.55;;
11524;SDS011;5819;49.648;8.330;2023-04-24T06:13:19;6.05;;;5.45;;
11524;SDS011;5819;49.648;8.330;2023-04-24T06:16:05;6.65;;;5.90;;
11524;SDS011;5819;49.648;8.330;2023-04-24T06:18:39;6.70;;;5.63;;
11524;SDS011;5819;49.648;8.330;2023-04-24T06:21:07;7.70;;;6.72;;
11524;SDS011;5819;49.648;8.330;2023-04-24T06:23:34;7.88;;;6.50;;
11524;SDS011;5819;49.648;8.330;2023-04-24T06:26:02;6.97;;;6.28;;
11524;SDS011;5819;49.648;8.330;2023-04-24T06:28:31;7.68;;;6.97;;
11524;SDS011;5819;49.648;8.330;2023-04-24T06:30:58;8.90;;;6.38;;
11524;SDS011;5819;49.648;8.330;2023-04-24T06:33:26;7.47;;;6.75;;
11524;SDS011;5819;49.648;8.330;2023-04-24T06:35:55;8.25;;;7.03;;
11524;SDS011;5819;49.648;8.330;2023-04-24T06:38:25;7.40;;;6.65;;
11524;SDS011;5819;49.648;8.330;2023-04-24T06:40:54;9.52;;;7.00;;
11524;SDS011;5819;49.648;8.330;2023-04-24T06:43:22;9.38;;;7.15;;
11524;SDS011;5819;49.648;8.330;2023-04-24T06:45:50;8.60;;;6.07;;
11524;SDS011;5819;49.648;8.330;2023-04-24T06:48:18;6.32;;;5.72;;
11524;SDS011;5819;49.648;8.330;2023-04-24T06:50:46;6.32;;;5.30;;
11524;SDS011;5819;49.648;8.330;2023-04-24T06:53:15;7.68;;;5.00;;
11524;SDS011;5819;49.648;8.330;2023-04-24T06:55:43;5.30;;;4.80;;
11524;SDS011;5819;49.648;8.330;2023-04-24T06:58:12;5.25;;;4.53;;
11524;SDS011;5819;49.648;8.330;2023-04-24T07:00:41;5.63;;;4.55;;
11524;SDS011;5819;49.648;8.330;2023-04-24T07:03:09;5.32;;;4.80;;
11524;SDS011;5819;49.648;8.330;2023-04-24T07:05:38;6.68;;;4.70;;
11524;SDS011;5819;49.648;8.330;2023-04-24T07:08:06;4.07;;;3.67;;
11524;SDS011;5819;49.648;8.330;2023-04-24T07:10:36;4.55;;;3.63;;
11524;SDS011;5819;49.648;8.330;2023-04-24T07:13:04;4.78;;;3.58;;
11524;SDS011;5819;49.648;8.330;2023-04-24T07:15:33;6.15;;;3.60;;
11524;SDS011;5819;49.648;8.330;2023-04-24T07:18:01;6.32;;;3.20;;
11524;SDS011;5819;49.648;8.330;2023-04-24T07:20:31;4.57;;;3.20;;
11524;SDS011;5819;49.648;8.330;2023-04-24T07:22:59;4.15;;;2.60;;
11524;SDS011;5819;49.648;8.330;2023-04-24T07:25:27;3.08;;;2.50;;
11524;SDS011;5819;49.648;8.330;2023-04-24T07:27:56;2.83;;;2.35;;
11524;SDS011;5819;49.648;8.330;2023-04-24T07:30:24;2.63;;;2.05;;
11524;SDS011;5819;49.648;8.330;2023-04-24T07:32:52;1.98;;;1.88;;
11524;SDS011;5819;49.648;8.330;2023-04-24T07:35:20;2.10;;;1.88;;
11524;SDS011;5819;49.648;8.330;2023-04-24T07:37:48;2.88;;;2.08;;
11524;SDS011;5819;49.648;8.330;2023-04-24T07:40:15;2.42;;;1.98;;
11524;SDS011;5819;49.648;8.330;2023-04-24T07:42:43;2.22;;;1.98;;
11524;SDS011;5819;49.648;8.330;2023-04-24T07:45:12;4.65;;;2.22;;
11524;SDS011;5819;49.648;8.330;2023-04-24T07:47:40;2.88;;;2.33;;
11524;SDS011;5819;49.648;8.330;2023-04-24T07:50:12;3.83;;;2.60;;
11524;SDS011;5819;49.648;8.330;2023-04-24T07:52:39;4.32;;;2.80;;
11524;SDS011;5819;49.648;8.330;2023-04-24T07:55:07;3.70;;;2.63;;
11524;SDS011;5819;49.648;8.330;2023-04-24T07:57:35;3.60;;;2.78;;
11524;SDS011;5819;49.648;8.330;2023-04-24T08:00:04;3.20;;;2.90;;
11524;SDS011;5819;49.648;8.330;2023-04-24T08:02:40;2.72;;;2.38;;
11524;SDS011;5819;49.648;8.330;2023-04-24T08:05:08;3.55;;;2.55;;
11524;SDS011;5819;49.648;8.330;2023-04-24T08:07:36;6.32;;;2.40;;
11524;SDS011;5819;49.648;8.330;2023-04-24T08:10:05;4.85;;;2.70;;
11524;SDS011;5819;49.648;8.330;2023-04-24T08:12:34;4.38;;;2.92;;
11524;SDS011;5819;49.648;8.330;2023-04-24T08:15:02;3.85;;;2.40;;
11524;SDS011;5819;49.648;8.330;2023-04-24T08:17:30;3.78;;;2.50;;
11524;SDS011;5819;49.648;8.330;2023-04-24T08:19:59;3.75;;;2.40;;
11524;SDS011;5819;49.648;8.330;2023-04-24T08:22:28;2.85;;;2.30;;
11524;SDS011;5819;49.648;8.330;2023-04-24T08:24:56;3.05;;;2.45;;
11524;SDS011;5819;49.648;8.330;2023-04-24T08:27:25;3.15;;;2.83;;
11524;SDS011;5819;49.648;8.330;2023-04-24T08:29:54;5.65;;;2.72;;
11524;SDS011;5819;49.648;8.330;2023-04-24T08:32:22;4.03;;;3.13;;
11524;SDS011;5819;49.648;8.330;2023-04-24T08:34:49;3.38;;;3.08;;
11524;SDS011;5819;49.648;8.330;2023-04-24T08:37:20;3.15;;;2.58;;
11524;SDS011;5819;49.648;8.330;2023-04-24T08:39:48;3.53;;;2.72;;
11524;SDS011;5819;49.648;8.330;2023-04-24T08:42:16;3.13;;;2.83;;
11524;SDS011;5819;49.648;8.330;2023-04-24T08:44:45;5.60;;;3.05;;
11524;SDS011;5819;49.648;8.330;2023-04-24T08:47:13;5.25;;;3.40;;
11524;SDS011;5819;49.648;8.330;2023-04-24T08:49:43;6.45;;;3.08;;
11524;SDS011;5819;49.648;8.330;2023-04-24T08:52:12;4.95;;;2.92;;
11524;SDS011;5819;49.648;8.330;2023-04-24T08:54:41;4.50;;;3.63;;
11524;SDS011;5819;49.648;8.330;2023-04-24T08:57:11;3.47;;;3.17;;
11524;SDS011;5819;49.648;8.330;2023-04-24T08:59:41;5.72;;;3.40;;
11524;SDS011;5819;49.648;8.330;2023-04-24T09:02:10;3.53;;;2.97;;
11524;SDS011;5819;49.648;8.330;2023-04-24T09:04:40;4.50;;;3.35;;
11524;SDS011;5819;49.648;8.330;2023-04-24T09:07:08;3.50;;;3.20;;
11524;SDS011;5819;49.648;8.330;2023-04-24T09:09:37;3.55;;;3.20;;
11524;SDS011;5819;49.648;8.330;2023-04-24T09:12:08;5.07;;;3.38;;
11524;SDS011;5819;49.648;8.330;2023-04-24T09:14:36;5.50;;;3.40;;
11524;SDS011;5819;49.648;8.330;2023-04-24T09:17:08;4.28;;;3.63;;
11524;SDS011;5819;49.648;8.330;2023-04-24T09:19:36;5.25;;;3.90;;
11524;SDS011;5819;49.648;8.330;2023-04-24T09:22:05;4.90;;;4.20;;
11524;SDS011;5819;49.648;8.330;2023-04-24T09:24:34;3.97;;;3.53;;
11524;SDS011;5819;49.648;8.330;2023-04-24T09:27:02;6.43;;;3.67;;
11524;SDS011;5819;49.648;8.330;2023-04-24T09:29:33;3.75;;;2.63;;
11524;SDS011;5819;49.648;8.330;2023-04-24T09:32:08;4.75;;;3.03;;
11524;SDS011;5819;49.648;8.330;2023-04-24T09:34:47;3.13;;;2.42;;
11524;SDS011;5819;49.648;8.330;2023-04-24T09:37:25;2.97;;;2.70;;
11524;SDS011;5819;49.648;8.330;2023-04-24T09:40:07;3.00;;;2.70;;
11524;SDS011;5819;49.648;8.330;2023-04-24T09:42:36;4.50;;;2.72;;
11524;SDS011;5819;49.648;8.330;2023-04-24T09:45:09;2.28;;;2.05;;
11524;SDS011;5819;49.648;8.330;2023-04-24T09:47:41;6.38;;;1.90;;
11524;SDS011;5819;49.648;8.330;2023-04-24T09:50:10;2.88;;;2.33;;
11524;SDS011;5819;49.648;8.330;2023-04-24T09:52:41;2.90;;;2.35;;
11524;SDS011;5819;49.648;8.330;2023-04-24T09:55:11;4.18;;;2.63;;
11524;SDS011;5819;49.648;8.330;2023-04-24T09:57:48;2.90;;;2.20;;
11524;SDS011;5819;49.648;8.330;2023-04-24T10:00:26;4.88;;;3.00;;
11524;SDS011;5819;49.648;8.330;2023-04-24T10:02:54;4.25;;;2.83;;
11524;SDS011;5819;49.648;8.330;2023-04-24T10:05:27;3.58;;;2.72;;
11524;SDS011;5819;49.648;8.330;2023-04-24T10:07:56;4.18;;;2.50;;
11524;SDS011;5819;49.648;8.330;2023-04-24T10:10:25;4.35;;;3.80;;
11524;SDS011;5819;49.648;8.330;2023-04-24T10:12:53;2.95;;;2.58;;
11524;SDS011;5819;49.648;8.330;2023-04-24T10:15:22;5.03;;;2.80;;
11524;SDS011;5819;49.648;8.330;2023-04-24T10:17:53;3.90;;;2.30;;
11524;SDS011;5819;49.648;8.330;2023-04-24T10:20:22;6.55;;;2.55;;
11524;SDS011;5819;49.648;8.330;2023-04-24T10:22:52;3.10;;;2.58;;
11524;SDS011;5819;49.648;8.330;2023-04-24T10:25:21;4.85;;;2.58;;
11524;SDS011;5819;49.648;8.330;2023-04-24T10:27:51;3.03;;;2.25;;
11524;SDS011;5819;49.648;8.330;2023-04-24T10:30:23;3.78;;;2.40;;
11524;SDS011;5819;49.648;8.330;2023-04-24T10:32:54;3.67;;;2.70;;
11524;SDS011;5819;49.648;8.330;2023-04-24T10:35:23;4.90;;;2.72;;
11524;SDS011;5819;49.648;8.330;2023-04-24T10:37:54;5.70;;;3.03;;
11524;SDS011;5819;49.648;8.330;2023-04-24T10:40:25;6.15;;;2.85;;
11524;SDS011;5819;49.648;8.330;2023-04-24T10:42:54;3.80;;;2.60;;
11524;SDS011;5819;49.648;8.330;2023-04-24T10:45:26;4.28;;;2.60;;
11524;SDS011;5819;49.648;8.330;2023-04-24T10:47:56;2.78;;;2.58;;
11524;SDS011;5819;49.648;8.330;2023-04-24T10:50:26;5.15;;;2.42;;
11524;SDS011;5819;49.648;8.330;2023-04-24T10:53:04;2.92;;;2.70;;
11524;SDS011;5819;49.648;8.330;2023-04-24T10:55:44;2.60;;;2.40;;
11524;SDS011;5819;49.648;8.330;2023-04-24T10:58:14;4.18;;;2.90;;
11524;SDS011;5819;49.648;8.330;2023-04-24T11:00:48;4.10;;;2.72;;
11524;SDS011;5819;49.648;8.330;2023-04-24T11:03:24;2.88;;;2.60;;
11524;SDS011;5819;49.648;8.330;2023-04-24T11:05:58;3.53;;;2.40;;
11524;SDS011;5819;49.648;8.330;2023-04-24T11:08:31;5.15;;;2.55;;
11524;SDS011;5819;49.648;8.330;2023-04-24T11:11:10;5.97;;;2.85;;
11524;SDS011;5819;49.648;8.330;2023-04-24T11:16:31;4.38;;;2.92;;
11524;SDS011;5819;49.648;8.330;2023-04-24T11:19:01;6.55;;;3.17;;
11524;SDS011;5819;49.648;8.330;2023-04-24T11:21:31;5.32;;;3.28;;
11524;SDS011;5819;49.648;8.330;2023-04-24T11:26:53;4.03;;;2.97;;
11524;SDS011;5819;49.648;8.330;2023-04-24T11:29:23;7.13;;;3.50;;
11524;SDS011;5819;49.648;8.330;2023-04-24T11:35:04;5.50;;;3.50;;
11524;SDS011;5819;49.648;8.330;2023-04-24T11:37:35;4.80;;;3.50;;
11524;SDS011;5819;49.648;8.330;2023-04-24T11:40:04;4.45;;;3.75;;
11524;SDS011;5819;49.648;8.330;2023-04-24T11:42:33;4.57;;;3.80;;
11524;SDS011;5819;49.648;8.330;2023-04-24T11:45:01;5.93;;;3.47;;
11524;SDS011;5819;49.648;8.330;2023-04-24T11:47:37;5.05;;;3.53;;
11524;SDS011;5819;49.648;8.330;2023-04-24T11:50:05;4.93;;;3.72;;
11524;SDS011;5819;49.648;8.330;2023-04-24T11:52:36;7.63;;;4.00;;
11524;SDS011;5819;49.648;8.330;2023-04-24T11:55:06;5.40;;;3.75;;
11524;SDS011;5819;49.648;8.330;2023-04-24T11:57:35;4.30;;;3.40;;
11524;SDS011;5819;49.648;8.330;2023-04-24T12:00:03;5.10;;;3.35;;
11524;SDS011;5819;49.648;8.330;2023-04-24T12:02:40;5.88;;;3.78;;
11524;SDS011;5819;49.648;8.330;2023-04-24T12:05:08;7.10;;;3.63;;
11524;SDS011;5819;49.648;8.330;2023-04-24T12:07:39;4.38;;;3.60;;
11524;SDS011;5819;49.648;8.330;2023-04-24T12:10:09;5.28;;;3.67;;
11524;SDS011;5819;49.648;8.330;2023-04-24T12:12:37;4.55;;;3.80;;
11524;SDS011;5819;49.648;8.330;2023-04-24T12:15:06;5.30;;;3.63;;
11524;SDS011;5819;49.648;8.330;2023-04-24T12:17:35;5.20;;;3.50;;
11524;SDS011;5819;49.648;8.330;2023-04-24T12:20:06;5.72;;;3.47;;
11524;SDS011;5819;49.648;8.330;2023-04-24T12:22:45;4.03;;;3.30;;
11524;SDS011;5819;49.648;8.330;2023-04-24T12:25:14;4.47;;;3.72;;
11524;SDS011;5819;49.648;8.330;2023-04-24T12:27:43;6.40;;;4.45;;
11524;SDS011;5819;49.648;8.330;2023-04-24T12:30:12;3.88;;;3.20;;
11524;SDS011;5819;49.648;8.330;2023-04-24T12:32:41;5.95;;;3.10;;
11524;SDS011;5819;49.648;8.330;2023-04-24T12:35:12;5.60;;;3.97;;
11524;SDS011;5819;49.648;8.330;2023-04-24T12:37:41;6.70;;;4.05;;
11524;SDS011;5819;49.648;8.330;2023-04-24T12:40:13;4.97;;;3.70;;
11524;SDS011;5819;49.648;8.330;2023-04-24T12:42:42;5.95;;;3.85;;
11524;SDS011;5819;49.648;8.330;2023-04-24T12:45:11;4.60;;;3.40;;
11524;SDS011;5819;49.648;8.330;2023-04-24T12:47:39;6.20;;;3.40;;
11524;SDS011;5819;49.648;8.330;2023-04-24T12:50:08;6.63;;;4.22;;
11524;SDS011;5819;49.648;8.330;2023-04-24T12:52:38;5.47;;;3.80;;
11524;SDS011;5819;49.648;8.330;2023-04-24T12:55:07;4.32;;;3.65;;
11524;SDS011;5819;49.648;8.330;2023-04-24T12:57:36;4.75;;;3.72;;
11524;SDS011;5819;49.648;8.330;2023-04-24T13:00:05;7.28;;;5.10;;
11524;SDS011;5819;49.648;8.330;2023-04-24T13:02:35;5.45;;;4.10;;
11524;SDS011;5819;49.648;8.330;2023-04-24T13:05:03;6.38;;;4.03;;
11524;SDS011;5819;49.648;8.330;2023-04-24T13:07:32;5.30;;;3.83;;
11524;SDS011;5819;49.648;8.330;2023-04-24T13:10:02;4.10;;;3.60;;
11524;SDS011;5819;49.648;8.330;2023-04-24T13:12:30;4.03;;;3.22;;
11524;SDS011;5819;49.648;8.330;2023-04-24T13:14:57;4.47;;;3.17;;
11524;SDS011;5819;49.648;8.330;2023-04-24T13:17:26;4.30;;;3.13;;
11524;SDS011;5819;49.648;8.330;2023-04-24T13:19:54;5.82;;;3.33;;
11524;SDS011;5819;49.648;8.330;2023-04-24T13:22:22;3.75;;;3.25;;
11524;SDS011;5819;49.648;8.330;2023-04-24T13:24:50;3.85;;;3.15;;
11524;SDS011;5819;49.648;8.330;2023-04-24T13:27:19;4.30;;;3.20;;
11524;SDS011;5819;49.648;8.330;2023-04-24T13:29:47;4.45;;;3.70;;
11524;SDS011;5819;49.648;8.330;2023-04-24T13:32:15;6.45;;;3.47;;
11524;SDS011;5819;49.648;8.330;2023-04-24T13:34:43;6.78;;;3.40;;
11524;SDS011;5819;49.648;8.330;2023-04-24T13:37:11;3.92;;;3.20;;
11524;SDS011;5819;49.648;8.330;2023-04-24T13:39:39;5.32;;;3.75;;
11524;SDS011;5819;49.648;8.330;2023-04-24T13:42:08;3.80;;;3.05;;
11524;SDS011;5819;49.648;8.330;2023-04-24T13:44:38;5.47;;;3.30;;
11524;SDS011;5819;49.648;8.330;2023-04-24T13:47:07;4.55;;;2.50;;
11524;SDS011;5819;49.648;8.330;2023-04-24T13:49:35;3.53;;;2.80;;
11524;SDS011;5819;49.648;8.330;2023-04-24T13:52:03;4.65;;;3.50;;
11524;SDS011;5819;49.648;8.330;2023-04-24T13:54:31;3.40;;;3.03;;
11524;SDS011;5819;49.648;8.330;2023-04-24T13:56:59;4.38;;;2.75;;
11524;SDS011;5819;49.648;8.330;2023-04-24T13:59:28;5.22;;;3.47;;
11524;SDS011;5819;49.648;8.330;2023-04-24T14:01:57;4.13;;;3.10;;
11524;SDS011;5819;49.648;8.330;2023-04-24T14:04:25;4.43;;;3.15;;
11524;SDS011;5819;49.648;8.330;2023-04-24T14:06:53;5.20;;;3.60;;
11524;SDS011;5819;49.648;8.330;2023-04-24T14:09:21;4.28;;;2.78;;
11524;SDS011;5819;49.648;8.330;2023-04-24T14:11:49;3.38;;;3.08;;
11524;SDS011;5819;49.648;8.330;2023-04-24T14:14:17;3.83;;;2.88;;
11524;SDS011;5819;49.648;8.330;2023-04-24T14:16:44;3.92;;;2.78;;
11524;SDS011;5819;49.648;8.330;2023-04-24T14:19:13;3.88;;;3.58;;
11524;SDS011;5819;49.648;8.330;2023-04-24T14:21:42;6.63;;;3.80;;
11524;SDS011;5819;49.648;8.330;2023-04-24T14:24:10;5.03;;;4.30;;
11524;SDS011;5819;49.648;8.330;2023-04-24T14:26:37;5.57;;;3.85;;
11524;SDS011;5819;49.648;8.330;2023-04-24T14:29:05;5.38;;;3.50;;
11524;SDS011;5819;49.648;8.330;2023-04-24T14:31:41;4.53;;;3.75;;
11524;SDS011;5819;49.648;8.330;2023-04-24T14:34:09;4.47;;;3.47;;
11524;SDS011;5819;49.648;8.330;2023-04-24T14:36:38;4.65;;;3.33;;
11524;SDS011;5819;49.648;8.330;2023-04-24T14:39:07;5.00;;;3.20;;
11524;SDS011;5819;49.648;8.330;2023-04-24T14:41:36;4.40;;;3.50;;
11524;SDS011;5819;49.648;8.330;2023-04-24T14:44:05;5.07;;;3.30;;
11524;SDS011;5819;49.648;8.330;2023-04-24T14:46:33;4.95;;;3.17;;
11524;SDS011;5819;49.648;8.330;2023-04-24T14:49:01;5.50;;;3.45;;
11524;SDS011;5819;49.648;8.330;2023-04-24T14:51:29;6.95;;;5.18;;
11524;SDS011;5819;49.648;8.330;2023-04-24T14:53:59;5.68;;;3.67;;
11524;SDS011;5819;49.648;8.330;2023-04-24T14:56:26;6.55;;;3.50;;
11524;SDS011;5819;49.648;8.330;2023-04-24T14:58:54;4.45;;;3.30;;
11524;SDS011;5819;49.648;8.330;2023-04-24T15:01:23;3.42;;;3.13;;
11524;SDS011;5819;49.648;8.330;2023-04-24T15:03:51;4.90;;;3.05;;
11524;SDS011;5819;49.648;8.330;2023-04-24T15:06:19;3.30;;;3.00;;
11524;SDS011;5819;49.648;8.330;2023-04-24T15:08:47;4.57;;;3.40;;
11524;SDS011;5819;49.648;8.330;2023-04-24T15:11:17;4.30;;;3.17;;
11524;SDS011;5819;49.648;8.330;2023-04-24T15:13:46;4.78;;;3.22;;
11524;SDS011;5819;49.648;8.330;2023-04-24T15:16:14;6.47;;;3.63;;
11524;SDS011;5819;49.648;8.330;2023-04-24T15:18:42;5.60;;;4.05;;
11524;SDS011;5819;49.648;8.330;2023-04-24T15:21:10;5.65;;;3.65;;
11524;SDS011;5819;49.648;8.330;2023-04-24T15:23:39;4.63;;;3.70;;
11524;SDS011;5819;49.648;8.330;2023-04-24T15:26:07;5.60;;;3.80;;
11524;SDS011;5819;49.648;8.330;2023-04-24T15:28:36;5.65;;;3.88;;